createdAt,value
2023-01-02T00:07:28.837Z,6.93
2023-01-02T00:17:35.667Z,7.13
2023-01-02T00:27:39.977Z,6.45
2023-01-02T00:37:42.475Z,6.97
2023-01-02T00:47:45.588Z,6.63
2023-01-02T00:57:50.325Z,6.93
2023-01-02T01:07:56.342Z,6.95
2023-01-02T01:17:58.788Z,7.45
2023-01-02T01:28:03.504Z,7.40
2023-01-02T01:38:08.197Z,6.55
2023-01-02T01:48:14.404Z,7.15
2023-01-02T01:58:25.267Z,6.63
2023-01-02T02:08:48.356Z,5.80
2023-01-02T02:19:29.547Z,6.75
2023-01-02T02:29:43.745Z,6.72
2023-01-02T02:40:07.170Z,7.60
2023-01-02T02:50:13.377Z,6.80
2023-01-02T03:00:20.091Z,6.90
2023-01-02T03:10:47.493Z,7.30
2023-01-02T03:21:17.270Z,7.60
2023-01-02T03:31:23.503Z,7.65
2023-01-02T03:41:28.973Z,7.57
2023-01-02T03:51:30.996Z,7.40
2023-01-02T04:01:54.798Z,7.47
2023-01-02T04:12:05.339Z,6.70
2023-01-02T04:22:15.094Z,6.82
2023-01-02T04:32:18.840Z,7.40
2023-01-02T04:42:20.863Z,8.07
2023-01-02T04:52:23.058Z,6.78
2023-01-02T05:02:31.031Z,7.40
2023-01-02T05:12:39.984Z,7.35
2023-01-02T05:23:03.004Z,8.13
2023-01-02T05:33:05.144Z,7.50
2023-01-02T05:43:07.117Z,7.72
2023-01-02T05:53:11.852Z,7.97
2023-01-02T06:03:16.265Z,7.45
2023-01-02T06:13:20.377Z,8.05
2023-01-02T06:23:24.710Z,7.05
2023-01-02T06:33:27.065Z,7.80
2023-01-02T06:43:30.043Z,7.57
2023-01-02T06:53:36.876Z,6.93
2023-01-02T07:03:41.486Z,6.57
2023-01-02T07:13:44.687Z,7.47
2023-01-02T07:23:49.374Z,7.15
2023-01-02T07:33:51.417Z,6.38
2023-01-02T07:43:55.541Z,6.30
2023-01-02T07:53:57.695Z,7.13
2023-01-02T08:04:00.145Z,5.82
2023-01-02T08:14:05.557Z,6.13
2023-01-02T08:24:12.728Z,7.50
2023-01-02T08:34:20.195Z,7.10
2023-01-02T08:44:25.391Z,6.55
2023-01-02T08:54:27.522Z,6.45
2023-01-02T09:04:32.071Z,7.50
2023-01-02T09:14:41.439Z,7.70
2023-01-02T09:24:43.531Z,7.70
2023-01-02T09:34:51.031Z,8.18
2023-01-02T09:44:55.739Z,6.85
2023-01-02T09:55:00.577Z,7.50
2023-01-02T10:05:26.640Z,8.02
2023-01-02T10:15:29.816Z,7.78
2023-01-02T10:26:11.842Z,7.55
2023-01-02T10:36:29.248Z,8.10
2023-01-02T10:46:38.317Z,8.75
2023-01-02T10:56:40.884Z,7.45
2023-01-02T11:06:53.943Z,8.18
2023-01-02T11:17:07.490Z,7.65
2023-01-02T11:27:09.728Z,7.60
2023-01-02T11:37:16.791Z,7.68
2023-01-02T11:47:24.980Z,7.68
2023-01-02T11:57:45.589Z,7.43
2023-01-02T12:07:54.519Z,7.32
2023-01-02T12:18:05.796Z,7.10
2023-01-02T12:28:58.309Z,7.05
2023-01-02T12:39:24.413Z,7.53
2023-01-02T12:49:55.070Z,6.72
2023-01-02T13:00:05.719Z,7.03
2023-01-02T13:10:16.260Z,7.10
2023-01-02T13:20:31.097Z,7.07
2023-01-02T13:30:48.646Z,6.82
2023-01-02T13:40:56.554Z,5.57
2023-01-02T13:51:00.727Z,5.88
2023-01-02T14:01:27.079Z,5.88
2023-01-02T14:11:55.725Z,5.72
2023-01-02T14:22:02.521Z,6.38
2023-01-02T14:32:09.103Z,5.85
2023-01-02T14:42:57.653Z,5.90
2023-01-02T14:53:03.405Z,6.13
2023-01-02T15:03:32.659Z,6.57
2023-01-02T15:14:04.768Z,6.00
2023-01-02T15:24:00.503Z,7.25
2023-01-02T15:34:07.243Z,7.00
2023-01-02T15:44:29.884Z,6.95
2023-01-02T15:54:38.201Z,8.48
2023-01-02T16:04:40.226Z,7.82
2023-01-02T16:14:45.937Z,6.88
2023-01-02T16:24:52.713Z,7.80
2023-01-02T16:35:04.129Z,8.25
2023-01-02T16:45:07.020Z,7.93
2023-01-02T16:55:16.778Z,7.57
2023-01-02T17:05:20.879Z,9.38
2023-01-02T17:15:25.522Z,8.35
2023-01-02T17:25:30.441Z,8.20
2023-01-02T17:35:34.751Z,8.75
2023-01-02T17:45:41.852Z,7.88
2023-01-02T17:55:51.635Z,8.75
2023-01-02T18:06:14.154Z,8.40
2023-01-02T18:16:24.644Z,8.77
2023-01-02T18:26:30.781Z,9.10
2023-01-02T18:36:44.254Z,8.32
2023-01-02T18:47:04.307Z,8.60
2023-01-02T18:57:20.342Z,8.50
2023-01-02T19:07:37.900Z,9.05
2023-01-02T19:17:41.150Z,9.20
2023-01-02T19:27:48.133Z,9.20
2023-01-02T19:37:52.699Z,8.77
2023-01-02T19:47:58.313Z,8.30
2023-01-02T19:58:06.253Z,9.70
2023-01-02T20:08:08.402Z,8.02
2023-01-02T20:18:12.884Z,8.20
2023-01-02T20:28:18.249Z,7.68
2023-01-02T20:38:23.295Z,7.97
2023-01-02T20:48:30.216Z,6.95
2023-01-02T20:58:34.889Z,7.28
2023-01-02T21:08:39.365Z,7.47
2023-01-02T21:18:46.805Z,7.63
2023-01-02T21:28:51.140Z,7.85
2023-01-02T21:38:55.863Z,7.78
2023-01-02T21:49:02.701Z,6.82
2023-01-02T21:59:08.515Z,7.32
2023-01-02T22:09:13.105Z,7.40
2023-01-02T22:19:15.721Z,7.82
2023-01-02T22:29:29.212Z,7.30
2023-01-02T22:39:43.117Z,7.47
2023-01-02T22:49:45.876Z,7.60
2023-01-02T22:59:48.044Z,7.85
2023-01-02T23:09:52.470Z,7.65
2023-01-02T23:19:57.413Z,7.68
2023-01-02T23:29:59.528Z,7.65
2023-01-02T23:40:01.796Z,7.82
2023-01-02T23:50:04.717Z,7.40
